Colerain, North Carolina
Current Conditions -  °F | °C
As of 3:15 PM on Wednesday 26 Nov 2014 (Local Time) from KEDE Reporting Station
Drizzle Drizzle  
Wind Chill: 39°   Ceiling: 1400
Heat Index: 46°   Visibility: 1.5mi
Dew Point: 44°   Wind: 15mph
Humidity: 94%   Direction: 320°NW
Pressure: 29.85"   Gusts: 20mph
Location:  36.2°N, 76.77°W
Report Text: KEDE 262015Z AUTO 32013G17KT 1 1/2SM +DZ SCT009 OVC014 08/07 A2985 RMK AO2 T00750066
Loading
Personal Weather Stations






























Interactive Weather Map New forecast layout! Learn more

10-Day Weather Forecast

Advertisements
Track Severe Weather on mobile